sensor_id;sensor_type;location;lat;lon;timestamp;temperature;humidity
20102;DHT22;10210;52.284;9.892;2024-01-25T00:02:16;10.80;99.90
20102;DHT22;10210;52.284;9.892;2024-01-25T00:04:42;10.80;99.90
20102;DHT22;10210;52.284;9.892;2024-01-25T00:07:08;10.80;99.90
20102;DHT22;10210;52.284;9.892;2024-01-25T00:09:35;10.80;99.90
20102;DHT22;10210;52.284;9.892;2024-01-25T00:12:01;10.80;99.90
20102;DHT22;10210;52.284;9.892;2024-01-25T00:14:26;10.80;99.90
20102;DHT22;10210;52.284;9.892;2024-01-25T00:16:52;10.80;99.90
20102;DHT22;10210;52.284;9.892;2024-01-25T00:19:18;10.80;99.90
20102;DHT22;10210;52.284;9.892;2024-01-25T00:21:44;10.80;99.90
20102;DHT22;10210;52.284;9.892;2024-01-25T00:24:13;10.70;99.90
20102;DHT22;10210;52.284;9.892;2024-01-25T00:26:39;10.70;99.90
20102;DHT22;10210;52.284;9.892;2024-01-25T00:29:05;10.70;99.90
20102;DHT22;10210;52.284;9.892;2024-01-25T00:31:30;10.70;99.90
20102;DHT22;10210;52.284;9.892;2024-01-25T00:34:00;10.70;99.90
20102;DHT22;10210;52.284;9.892;2024-01-25T00:36:26;10.70;99.90
20102;DHT22;10210;52.284;9.892;2024-01-25T00:38:52;10.70;99.90
20102;DHT22;10210;52.284;9.892;2024-01-25T00:41:18;10.70;99.90
20102;DHT22;10210;52.284;9.892;2024-01-25T00:43:45;10.70;99.90
20102;DHT22;10210;52.284;9.892;2024-01-25T00:46:12;10.70;99.90
20102;DHT22;10210;52.284;9.892;2024-01-25T00:48:38;10.70;99.90
20102;DHT22;10210;52.284;9.892;2024-01-25T00:51:07;10.70;99.90
20102;DHT22;10210;52.284;9.892;2024-01-25T00:53:33;10.70;99.90
20102;DHT22;10210;52.284;9.892;2024-01-25T00:56:00;10.70;99.90
20102;DHT22;10210;52.284;9.892;2024-01-25T00:58:26;10.70;99.90
20102;DHT22;10210;52.284;9.892;2024-01-25T01:00:52;10.70;99.90
20102;DHT22;10210;52.284;9.892;2024-01-25T01:03:18;10.70;99.90
20102;DHT22;10210;52.284;9.892;2024-01-25T01:05:45;10.70;99.90
20102;DHT22;10210;52.284;9.892;2024-01-25T01:08:12;10.70;99.90
20102;DHT22;10210;52.284;9.892;2024-01-25T01:10:37;10.70;99.90
20102;DHT22;10210;52.284;9.892;2024-01-25T01:13:03;10.70;99.90
20102;DHT22;10210;52.284;9.892;2024-01-25T01:15:29;10.70;99.90
20102;DHT22;10210;52.284;9.892;2024-01-25T01:17:55;10.60;99.90
20102;DHT22;10210;52.284;9.892;2024-01-25T01:20:20;10.60;99.90
20102;DHT22;10210;52.284;9.892;2024-01-25T01:22:46;10.60;99.90
20102;DHT22;10210;52.284;9.892;2024-01-25T01:25:12;10.60;99.90
20102;DHT22;10210;52.284;9.892;2024-01-25T01:27:37;10.60;99.90
20102;DHT22;10210;52.284;9.892;2024-01-25T01:30:03;10.60;99.90
20102;DHT22;10210;52.284;9.892;2024-01-25T01:32:29;10.60;99.90
20102;DHT22;10210;52.284;9.892;2024-01-25T01:34:55;10.60;99.90
20102;DHT22;10210;52.284;9.892;2024-01-25T01:37:21;10.50;99.90
20102;DHT22;10210;52.284;9.892;2024-01-25T01:39:46;10.50;99.90
20102;DHT22;10210;52.284;9.892;2024-01-25T01:42:12;10.50;99.90
20102;DHT22;10210;52.284;9.892;2024-01-25T01:44:39;10.50;99.90
20102;DHT22;10210;52.284;9.892;2024-01-25T01:47:05;10.50;99.90
20102;DHT22;10210;52.284;9.892;2024-01-25T01:49:30;10.50;99.90
20102;DHT22;10210;52.284;9.892;2024-01-25T01:51:56;10.50;99.90
20102;DHT22;10210;52.284;9.892;2024-01-25T01:54:24;10.50;99.90
20102;DHT22;10210;52.284;9.892;2024-01-25T01:56:51;10.50;99.90
20102;DHT22;10210;52.284;9.892;2024-01-25T01:59:18;10.50;99.90
20102;DHT22;10210;52.284;9.892;2024-01-25T02:01:43;10.50;99.90
20102;DHT22;10210;52.284;9.892;2024-01-25T02:04:09;10.40;99.90
20102;DHT22;10210;52.284;9.892;2024-01-25T02:06:35;10.40;99.90
20102;DHT22;10210;52.284;9.892;2024-01-25T02:09:00;10.40;99.90
20102;DHT22;10210;52.284;9.892;2024-01-25T02:11:27;10.40;99.90
20102;DHT22;10210;52.284;9.892;2024-01-25T02:13:54;10.40;99.90
20102;DHT22;10210;52.284;9.892;2024-01-25T02:16:19;10.40;99.90
20102;DHT22;10210;52.284;9.892;2024-01-25T02:18:46;10.40;99.90
20102;DHT22;10210;52.284;9.892;2024-01-25T02:21:13;10.40;99.90
20102;DHT22;10210;52.284;9.892;2024-01-25T02:23:39;10.40;99.90
20102;DHT22;10210;52.284;9.892;2024-01-25T02:26:04;10.40;99.90
20102;DHT22;10210;52.284;9.892;2024-01-25T02:28:30;10.40;99.90
20102;DHT22;10210;52.284;9.892;2024-01-25T02:30:56;10.40;99.90
20102;DHT22;10210;52.284;9.892;2024-01-25T02:33:24;10.30;99.90
20102;DHT22;10210;52.284;9.892;2024-01-25T02:35:50;10.30;99.90
20102;DHT22;10210;52.284;9.892;2024-01-25T02:38:15;10.30;99.90
20102;DHT22;10210;52.284;9.892;2024-01-25T02:40:41;10.30;99.90
20102;DHT22;10210;52.284;9.892;2024-01-25T02:43:08;10.30;99.90
20102;DHT22;10210;52.284;9.892;2024-01-25T02:45:33;10.30;99.90
20102;DHT22;10210;52.284;9.892;2024-01-25T02:47:59;10.30;99.90
20102;DHT22;10210;52.284;9.892;2024-01-25T02:50:27;10.30;99.90
20102;DHT22;10210;52.284;9.892;2024-01-25T02:52:53;10.30;99.90
20102;DHT22;10210;52.284;9.892;2024-01-25T02:55:19;10.30;99.90
20102;DHT22;10210;52.284;9.892;2024-01-25T02:57:45;10.30;99.90
20102;DHT22;10210;52.284;9.892;2024-01-25T03:00:11;10.30;99.90
20102;DHT22;10210;52.284;9.892;2024-01-25T03:02:37;10.30;99.90
20102;DHT22;10210;52.284;9.892;2024-01-25T03:05:03;10.30;99.90
20102;DHT22;10210;52.284;9.892;2024-01-25T03:07:29;10.30;99.90
20102;DHT22;10210;52.284;9.892;2024-01-25T03:09:55;10.30;99.90
20102;DHT22;10210;52.284;9.892;2024-01-25T03:12:20;10.30;99.90
20102;DHT22;10210;52.284;9.892;2024-01-25T03:14:47;10.30;99.90
20102;DHT22;10210;52.284;9.892;2024-01-25T03:17:13;10.20;99.90
20102;DHT22;10210;52.284;9.892;2024-01-25T03:19:39;10.20;99.90
20102;DHT22;10210;52.284;9.892;2024-01-25T03:22:05;10.20;99.90
20102;DHT22;10210;52.284;9.892;2024-01-25T03:24:30;10.20;99.90
20102;DHT22;10210;52.284;9.892;2024-01-25T03:26:56;10.20;99.90
20102;DHT22;10210;52.284;9.892;2024-01-25T03:29:21;10.20;99.90
20102;DHT22;10210;52.284;9.892;2024-01-25T03:31:49;10.20;99.90
20102;DHT22;10210;52.284;9.892;2024-01-25T03:34:15;10.20;99.90
20102;DHT22;10210;52.284;9.892;2024-01-25T03:36:41;10.20;99.90
20102;DHT22;10210;52.284;9.892;2024-01-25T03:39:07;10.10;99.90
20102;DHT22;10210;52.284;9.892;2024-01-25T03:41:33;10.10;99.90
20102;DHT22;10210;52.284;9.892;2024-01-25T03:43:59;10.10;99.90
20102;DHT22;10210;52.284;9.892;2024-01-25T03:46:24;10.10;99.90
20102;DHT22;10210;52.284;9.892;2024-01-25T03:48:50;10.10;99.90
20102;DHT22;10210;52.284;9.892;2024-01-25T03:51:16;10.10;99.90
20102;DHT22;10210;52.284;9.892;2024-01-25T03:53:42;10.10;99.90
20102;DHT22;10210;52.284;9.892;2024-01-25T03:56:14;10.00;99.90
20102;DHT22;10210;52.284;9.892;2024-01-25T03:58:42;10.00;99.90
20102;DHT22;10210;52.284;9.892;2024-01-25T04:01:09;9.90;99.90
20102;DHT22;10210;52.284;9.892;2024-01-25T04:03:35;9.90;99.90
20102;DHT22;10210;52.284;9.892;2024-01-25T04:06:01;9.90;99.90
20102;DHT22;10210;52.284;9.892;2024-01-25T04:08:27;9.90;99.90
20102;DHT22;10210;52.284;9.892;2024-01-25T04:10:52;9.90;99.90
20102;DHT22;10210;52.284;9.892;2024-01-25T04:13:18;9.90;99.90
20102;DHT22;10210;52.284;9.892;2024-01-25T04:15:44;9.90;99.90
20102;DHT22;10210;52.284;9.892;2024-01-25T04:18:09;9.80;99.90
20102;DHT22;10210;52.284;9.892;2024-01-25T04:20:35;9.90;99.90
20102;DHT22;10210;52.284;9.892;2024-01-25T04:23:01;9.80;99.90
20102;DHT22;10210;52.284;9.892;2024-01-25T04:25:27;9.80;99.90
20102;DHT22;10210;52.284;9.892;2024-01-25T04:27:52;9.80;99.90
20102;DHT22;10210;52.284;9.892;2024-01-25T04:30:18;9.80;99.90
20102;DHT22;10210;52.284;9.892;2024-01-25T04:32:44;9.80;99.90
20102;DHT22;10210;52.284;9.892;2024-01-25T04:35:10;9.80;99.90
20102;DHT22;10210;52.284;9.892;2024-01-25T04:37:35;9.80;99.90
20102;DHT22;10210;52.284;9.892;2024-01-25T04:40:02;9.80;99.90
20102;DHT22;10210;52.284;9.892;2024-01-25T04:42:28;9.80;99.90
20102;DHT22;10210;52.284;9.892;2024-01-25T04:44:54;9.80;99.90
20102;DHT22;10210;52.284;9.892;2024-01-25T04:47:19;9.80;99.90
20102;DHT22;10210;52.284;9.892;2024-01-25T04:49:45;9.80;99.90
20102;DHT22;10210;52.284;9.892;2024-01-25T04:52:11;9.80;99.90
20102;DHT22;10210;52.284;9.892;2024-01-25T04:54:36;9.70;99.90
20102;DHT22;10210;52.284;9.892;2024-01-25T04:57:02;9.70;99.90
20102;DHT22;10210;52.284;9.892;2024-01-25T04:59:32;9.70;99.90
20102;DHT22;10210;52.284;9.892;2024-01-25T05:01:59;9.70;99.90
20102;DHT22;10210;52.284;9.892;2024-01-25T05:04:25;9.70;99.90
20102;DHT22;10210;52.284;9.892;2024-01-25T05:06:50;9.70;99.90
20102;DHT22;10210;52.284;9.892;2024-01-25T05:09:16;9.80;99.90
20102;DHT22;10210;52.284;9.892;2024-01-25T05:11:42;9.70;99.90
20102;DHT22;10210;52.284;9.892;2024-01-25T05:14:07;9.70;99.90
20102;DHT22;10210;52.284;9.892;2024-01-25T05:16:33;9.70;99.90
20102;DHT22;10210;52.284;9.892;2024-01-25T05:19:00;9.70;99.90
20102;DHT22;10210;52.284;9.892;2024-01-25T05:21:26;9.70;99.90
20102;DHT22;10210;52.284;9.892;2024-01-25T05:23:51;9.70;99.90
20102;DHT22;10210;52.284;9.892;2024-01-25T05:26:17;9.70;99.90
20102;DHT22;10210;52.284;9.892;2024-01-25T05:28:44;9.70;99.90
20102;DHT22;10210;52.284;9.892;2024-01-25T05:31:10;9.70;99.90
20102;DHT22;10210;52.284;9.892;2024-01-25T05:33:41;9.70;99.90
20102;DHT22;10210;52.284;9.892;2024-01-25T05:36:07;9.70;99.90
20102;DHT22;10210;52.284;9.892;2024-01-25T05:38:33;9.70;99.90
20102;DHT22;10210;52.284;9.892;2024-01-25T05:40:59;9.70;99.90
20102;DHT22;10210;52.284;9.892;2024-01-25T05:43:25;9.70;99.90
20102;DHT22;10210;52.284;9.892;2024-01-25T05:45:51;9.60;99.90
20102;DHT22;10210;52.284;9.892;2024-01-25T05:48:17;9.70;99.90
20102;DHT22;10210;52.284;9.892;2024-01-25T05:50:42;9.70;99.90
20102;DHT22;10210;52.284;9.892;2024-01-25T05:53:08;9.60;99.90
20102;DHT22;10210;52.284;9.892;2024-01-25T05:55:34;9.70;99.90
20102;DHT22;10210;52.284;9.892;2024-01-25T05:57:59;9.60;99.90
20102;DHT22;10210;52.284;9.892;2024-01-25T06:00:25;9.60;99.90
20102;DHT22;10210;52.284;9.892;2024-01-25T06:02:51;9.60;99.90
20102;DHT22;10210;52.284;9.892;2024-01-25T06:05:17;9.60;99.90
20102;DHT22;10210;52.284;9.892;2024-01-25T06:07:43;9.60;99.90
20102;DHT22;10210;52.284;9.892;2024-01-25T06:10:09;9.60;99.90
20102;DHT22;10210;52.284;9.892;2024-01-25T06:12:35;9.60;99.90
20102;DHT22;10210;52.284;9.892;2024-01-25T06:15:01;9.60;99.90
20102;DHT22;10210;52.284;9.892;2024-01-25T06:17:27;9.60;99.90
20102;DHT22;10210;52.284;9.892;2024-01-25T06:19:53;9.60;99.90
20102;DHT22;10210;52.284;9.892;2024-01-25T06:22:19;9.60;99.90
20102;DHT22;10210;52.284;9.892;2024-01-25T06:24:44;9.50;99.90
20102;DHT22;10210;52.284;9.892;2024-01-25T06:27:10;9.50;99.90
20102;DHT22;10210;52.284;9.892;2024-01-25T06:29:36;9.50;99.90
20102;DHT22;10210;52.284;9.892;2024-01-25T06:32:02;9.50;99.90
20102;DHT22;10210;52.284;9.892;2024-01-25T06:34:27;9.50;99.90
20102;DHT22;10210;52.284;9.892;2024-01-25T06:36:53;9.50;99.90
20102;DHT22;10210;52.284;9.892;2024-01-25T06:39:19;9.50;99.90
20102;DHT22;10210;52.284;9.892;2024-01-25T06:41:45;9.50;99.90
20102;DHT22;10210;52.284;9.892;2024-01-25T06:44:10;9.50;99.90
20102;DHT22;10210;52.284;9.892;2024-01-25T06:46:36;9.50;99.90
20102;DHT22;10210;52.284;9.892;2024-01-25T06:49:02;9.40;99.90
20102;DHT22;10210;52.284;9.892;2024-01-25T06:51:28;9.40;99.90
20102;DHT22;10210;52.284;9.892;2024-01-25T06:53:54;9.40;99.90
20102;DHT22;10210;52.284;9.892;2024-01-25T06:56:19;9.40;99.90
20102;DHT22;10210;52.284;9.892;2024-01-25T06:58:45;9.40;99.90
20102;DHT22;10210;52.284;9.892;2024-01-25T07:01:11;9.40;99.90
20102;DHT22;10210;52.284;9.892;2024-01-25T07:03:36;9.40;99.90
20102;DHT22;10210;52.284;9.892;2024-01-25T07:06:03;9.40;99.90
20102;DHT22;10210;52.284;9.892;2024-01-25T07:08:29;9.30;99.90
20102;DHT22;10210;52.284;9.892;2024-01-25T07:10:55;9.30;99.90
20102;DHT22;10210;52.284;9.892;2024-01-25T07:13:21;9.30;99.90
20102;DHT22;10210;52.284;9.892;2024-01-25T07:15:47;9.30;99.90
20102;DHT22;10210;52.284;9.892;2024-01-25T07:18:13;9.30;99.90
20102;DHT22;10210;52.284;9.892;2024-01-25T07:20:39;9.30;99.90
20102;DHT22;10210;52.284;9.892;2024-01-25T07:23:04;9.30;99.90
20102;DHT22;10210;52.284;9.892;2024-01-25T07:25:30;9.30;99.90
20102;DHT22;10210;52.284;9.892;2024-01-25T07:27:55;9.30;99.90
20102;DHT22;10210;52.284;9.892;2024-01-25T07:30:21;9.20;99.90
20102;DHT22;10210;52.284;9.892;2024-01-25T07:32:47;9.20;99.90
20102;DHT22;10210;52.284;9.892;2024-01-25T07:35:15;9.30;99.90
20102;DHT22;10210;52.284;9.892;2024-01-25T07:37:41;9.20;99.90
20102;DHT22;10210;52.284;9.892;2024-01-25T07:40:08;9.20;99.90
20102;DHT22;10210;52.284;9.892;2024-01-25T07:42:34;9.20;99.90
20102;DHT22;10210;52.284;9.892;2024-01-25T07:45:00;9.20;99.90
20102;DHT22;10210;52.284;9.892;2024-01-25T07:47:26;9.20;99.90
20102;DHT22;10210;52.284;9.892;2024-01-25T07:49:52;9.20;99.90
20102;DHT22;10210;52.284;9.892;2024-01-25T07:52:17;9.20;99.90
20102;DHT22;10210;52.284;9.892;2024-01-25T07:54:43;9.20;99.90
20102;DHT22;10210;52.284;9.892;2024-01-25T07:57:10;9.20;99.90
20102;DHT22;10210;52.284;9.892;2024-01-25T07:59:35;9.20;99.90
20102;DHT22;10210;52.284;9.892;2024-01-25T08:02:01;9.20;99.90
20102;DHT22;10210;52.284;9.892;2024-01-25T08:04:27;9.20;99.90
20102;DHT22;10210;52.284;9.892;2024-01-25T08:06:52;9.20;99.90
20102;DHT22;10210;52.284;9.892;2024-01-25T08:09:18;9.20;99.90
20102;DHT22;10210;52.284;9.892;2024-01-25T08:11:44;9.20;99.90
20102;DHT22;10210;52.284;9.892;2024-01-25T08:14:10;9.20;99.90
20102;DHT22;10210;52.284;9.892;2024-01-25T08:16:36;9.20;99.90
20102;DHT22;10210;52.284;9.892;2024-01-25T08:19:02;9.20;99.90
20102;DHT22;10210;52.284;9.892;2024-01-25T08:21:28;9.20;99.90
20102;DHT22;10210;52.284;9.892;2024-01-25T08:23:54;9.20;99.90
20102;DHT22;10210;52.284;9.892;2024-01-25T08:26:20;9.20;99.90
20102;DHT22;10210;52.284;9.892;2024-01-25T08:28:46;9.30;99.90
20102;DHT22;10210;52.284;9.892;2024-01-25T08:31:12;9.30;99.90
20102;DHT22;10210;52.284;9.892;2024-01-25T08:33:39;9.30;99.90
20102;DHT22;10210;52.284;9.892;2024-01-25T08:36:10;9.30;99.90
20102;DHT22;10210;52.284;9.892;2024-01-25T08:38:36;9.30;99.90
20102;DHT22;10210;52.284;9.892;2024-01-25T08:41:02;9.30;99.90
20102;DHT22;10210;52.284;9.892;2024-01-25T08:43:27;9.30;99.90
20102;DHT22;10210;52.284;9.892;2024-01-25T08:45:53;9.30;99.90
20102;DHT22;10210;52.284;9.892;2024-01-25T08:48:19;9.30;99.90
20102;DHT22;10210;52.284;9.892;2024-01-25T08:50:46;9.30;99.90
20102;DHT22;10210;52.284;9.892;2024-01-25T08:53:12;9.40;99.90
20102;DHT22;10210;52.284;9.892;2024-01-25T08:55:37;9.40;99.90
20102;DHT22;10210;52.284;9.892;2024-01-25T08:58:04;9.40;99.90
20102;DHT22;10210;52.284;9.892;2024-01-25T09:00:29;9.40;99.90
20102;DHT22;10210;52.284;9.892;2024-01-25T09:02:55;9.40;99.90
20102;DHT22;10210;52.284;9.892;2024-01-25T09:05:21;9.40;99.90
20102;DHT22;10210;52.284;9.892;2024-01-25T09:07:47;9.40;99.90
20102;DHT22;10210;52.284;9.892;2024-01-25T09:10:13;9.40;99.90
20102;DHT22;10210;52.284;9.892;2024-01-25T09:12:38;9.40;99.90
20102;DHT22;10210;52.284;9.892;2024-01-25T09:15:05;9.40;99.90
20102;DHT22;10210;52.284;9.892;2024-01-25T09:17:31;9.50;99.90
20102;DHT22;10210;52.284;9.892;2024-01-25T09:19:57;9.50;99.90
20102;DHT22;10210;52.284;9.892;2024-01-25T09:22:26;9.50;99.90
20102;DHT22;10210;52.284;9.892;2024-01-25T09:24:52;9.50;99.90
20102;DHT22;10210;52.284;9.892;2024-01-25T09:27:18;9.50;99.90
20102;DHT22;10210;52.284;9.892;2024-01-25T09:29:44;9.60;99.90
20102;DHT22;10210;52.284;9.892;2024-01-25T09:32:10;9.60;99.90
20102;DHT22;10210;52.284;9.892;2024-01-25T09:34:38;9.60;99.90
20102;DHT22;10210;52.284;9.892;2024-01-25T09:37:05;9.60;99.90
20102;DHT22;10210;52.284;9.892;2024-01-25T09:39:31;9.60;99.90
20102;DHT22;10210;52.284;9.892;2024-01-25T09:41:58;9.60;99.90
20102;DHT22;10210;52.284;9.892;2024-01-25T09:44:24;9.60;99.90
20102;DHT22;10210;52.284;9.892;2024-01-25T09:46:51;9.60;99.90
20102;DHT22;10210;52.284;9.892;2024-01-25T09:49:17;9.60;99.90
20102;DHT22;10210;52.284;9.892;2024-01-25T09:51:43;9.70;99.90
20102;DHT22;10210;52.284;9.892;2024-01-25T09:54:09;9.70;99.90
20102;DHT22;10210;52.284;9.892;2024-01-25T09:56:35;9.70;99.90
20102;DHT22;10210;52.284;9.892;2024-01-25T09:59:02;9.70;99.90
20102;DHT22;10210;52.284;9.892;2024-01-25T10:01:29;9.70;99.90
20102;DHT22;10210;52.284;9.892;2024-01-25T10:03:55;9.70;99.90
20102;DHT22;10210;52.284;9.892;2024-01-25T10:06:22;9.70;99.90
20102;DHT22;10210;52.284;9.892;2024-01-25T10:08:49;9.70;99.90
20102;DHT22;10210;52.284;9.892;2024-01-25T10:11:15;9.70;99.90
20102;DHT22;10210;52.284;9.892;2024-01-25T10:13:46;9.70;99.90
20102;DHT22;10210;52.284;9.892;2024-01-25T10:16:13;9.70;99.90
20102;DHT22;10210;52.284;9.892;2024-01-25T10:18:45;9.70;99.90
20102;DHT22;10210;52.284;9.892;2024-01-25T10:21:13;9.70;99.90
20102;DHT22;10210;52.284;9.892;2024-01-25T10:23:40;9.70;99.90
20102;DHT22;10210;52.284;9.892;2024-01-25T10:26:08;9.60;99.90
20102;DHT22;10210;52.284;9.892;2024-01-25T10:28:34;9.70;99.90
20102;DHT22;10210;52.284;9.892;2024-01-25T10:31:01;9.70;99.90
20102;DHT22;10210;52.284;9.892;2024-01-25T10:33:30;9.70;99.90
20102;DHT22;10210;52.284;9.892;2024-01-25T10:35:57;9.70;99.90
20102;DHT22;10210;52.284;9.892;2024-01-25T10:38:33;9.80;99.90
20102;DHT22;10210;52.284;9.892;2024-01-25T10:41:02;9.80;99.90
20102;DHT22;10210;52.284;9.892;2024-01-25T10:43:30;9.80;99.90
20102;DHT22;10210;52.284;9.892;2024-01-25T10:45:57;9.80;99.90
20102;DHT22;10210;52.284;9.892;2024-01-25T10:48:28;9.80;99.90
20102;DHT22;10210;52.284;9.892;2024-01-25T10:50:57;9.80;99.90
20102;DHT22;10210;52.284;9.892;2024-01-25T10:53:30;9.80;99.90
20102;DHT22;10210;52.284;9.892;2024-01-25T10:55:58;9.80;99.90
20102;DHT22;10210;52.284;9.892;2024-01-25T10:58:25;9.80;99.90
20102;DHT22;10210;52.284;9.892;2024-01-25T11:00:55;9.90;99.90
20102;DHT22;10210;52.284;9.892;2024-01-25T11:03:28;9.90;99.90
20102;DHT22;10210;52.284;9.892;2024-01-25T11:06:09;9.90;99.90
20102;DHT22;10210;52.284;9.892;2024-01-25T11:08:36;9.90;99.90
20102;DHT22;10210;52.284;9.892;2024-01-25T11:11:11;9.90;99.90
20102;DHT22;10210;52.284;9.892;2024-01-25T11:13:40;10.00;99.90
20102;DHT22;10210;52.284;9.892;2024-01-25T11:16:18;10.00;99.90
20102;DHT22;10210;52.284;9.892;2024-01-25T11:18:57;10.00;99.90
20102;DHT22;10210;52.284;9.892;2024-01-25T11:21:45;10.00;99.90
20102;DHT22;10210;52.284;9.892;2024-01-25T11:24:23;10.00;99.90
20102;DHT22;10210;52.284;9.892;2024-01-25T11:26:54;10.00;99.90
20102;DHT22;10210;52.284;9.892;2024-01-25T11:29:21;10.00;99.90
20102;DHT22;10210;52.284;9.892;2024-01-25T11:31:52;10.00;99.90
20102;DHT22;10210;52.284;9.892;2024-01-25T11:34:18;10.00;99.90
20102;DHT22;10210;52.284;9.892;2024-01-25T11:36:44;10.10;99.90
20102;DHT22;10210;52.284;9.892;2024-01-25T11:39:11;10.10;99.90
20102;DHT22;10210;52.284;9.892;2024-01-25T11:41:38;10.10;99.90
20102;DHT22;10210;52.284;9.892;2024-01-25T11:44:04;10.20;99.90
20102;DHT22;10210;52.284;9.892;2024-01-25T11:46:32;10.20;99.90
20102;DHT22;10210;52.284;9.892;2024-01-25T11:48:58;10.20;99.90
20102;DHT22;10210;52.284;9.892;2024-01-25T11:51:24;10.20;99.90
20102;DHT22;10210;52.284;9.892;2024-01-25T11:53:50;10.30;99.90
20102;DHT22;10210;52.284;9.892;2024-01-25T11:56:37;10.30;99.90
20102;DHT22;10210;52.284;9.892;2024-01-25T11:59:05;10.30;99.90
20102;DHT22;10210;52.284;9.892;2024-01-25T12:01:32;10.40;99.90
20102;DHT22;10210;52.284;9.892;2024-01-25T12:03:58;10.40;99.90
20102;DHT22;10210;52.284;9.892;2024-01-25T12:06:24;10.40;99.90
20102;DHT22;10210;52.284;9.892;2024-01-25T12:08:50;10.50;99.90
20102;DHT22;10210;52.284;9.892;2024-01-25T12:11:17;10.40;99.90
20102;DHT22;10210;52.284;9.892;2024-01-25T12:13:44;10.50;99.90
20102;DHT22;10210;52.284;9.892;2024-01-25T12:16:10;10.50;99.90
20102;DHT22;10210;52.284;9.892;2024-01-25T12:18:39;10.50;99.90
20102;DHT22;10210;52.284;9.892;2024-01-25T12:21:07;10.40;99.90
20102;DHT22;10210;52.284;9.892;2024-01-25T12:23:39;10.50;99.90
20102;DHT22;10210;52.284;9.892;2024-01-25T12:26:10;10.50;99.90
20102;DHT22;10210;52.284;9.892;2024-01-25T12:28:37;10.50;99.90
20102;DHT22;10210;52.284;9.892;2024-01-25T12:31:04;10.50;99.90
20102;DHT22;10210;52.284;9.892;2024-01-25T12:33:32;10.50;99.90
20102;DHT22;10210;52.284;9.892;2024-01-25T12:35:59;10.50;99.90
20102;DHT22;10210;52.284;9.892;2024-01-25T12:38:25;10.50;99.90
20102;DHT22;10210;52.284;9.892;2024-01-25T12:40:52;10.60;99.90
20102;DHT22;10210;52.284;9.892;2024-01-25T12:43:19;10.60;99.90
20102;DHT22;10210;52.284;9.892;2024-01-25T12:45:47;10.60;99.90
20102;DHT22;10210;52.284;9.892;2024-01-25T12:48:13;10.60;99.90
20102;DHT22;10210;52.284;9.892;2024-01-25T12:50:42;10.60;99.90
20102;DHT22;10210;52.284;9.892;2024-01-25T12:53:10;10.60;99.90
20102;DHT22;10210;52.284;9.892;2024-01-25T12:55:37;10.70;99.90
20102;DHT22;10210;52.284;9.892;2024-01-25T12:58:03;10.70;99.90
20102;DHT22;10210;52.284;9.892;2024-01-25T13:00:29;10.70;99.90
20102;DHT22;10210;52.284;9.892;2024-01-25T13:02:55;10.70;99.90
20102;DHT22;10210;52.284;9.892;2024-01-25T13:05:22;10.70;99.90
20102;DHT22;10210;52.284;9.892;2024-01-25T13:07:50;10.80;99.90
20102;DHT22;10210;52.284;9.892;2024-01-25T13:10:16;10.80;99.90
20102;DHT22;10210;52.284;9.892;2024-01-25T13:12:41;10.70;99.90
20102;DHT22;10210;52.284;9.892;2024-01-25T13:15:07;10.70;99.90
20102;DHT22;10210;52.284;9.892;2024-01-25T13:17:36;10.80;99.90
20102;DHT22;10210;52.284;9.892;2024-01-25T13:20:03;10.80;99.90
20102;DHT22;10210;52.284;9.892;2024-01-25T13:22:32;10.80;99.90
20102;DHT22;10210;52.284;9.892;2024-01-25T13:24:59;10.80;99.90
20102;DHT22;10210;52.284;9.892;2024-01-25T13:27:26;10.80;99.90
20102;DHT22;10210;52.284;9.892;2024-01-25T13:29:52;10.90;99.90
20102;DHT22;10210;52.284;9.892;2024-01-25T13:32:18;10.90;99.90
20102;DHT22;10210;52.284;9.892;2024-01-25T13:34:44;10.90;99.90
20102;DHT22;10210;52.284;9.892;2024-01-25T13:37:10;10.90;99.90
20102;DHT22;10210;52.284;9.892;2024-01-25T13:39:36;10.90;99.90
20102;DHT22;10210;52.284;9.892;2024-01-25T13:42:01;11.00;99.90
20102;DHT22;10210;52.284;9.892;2024-01-25T13:44:27;11.00;99.90
20102;DHT22;10210;52.284;9.892;2024-01-25T13:46:53;11.10;99.90
20102;DHT22;10210;52.284;9.892;2024-01-25T13:49:21;11.20;99.90
20102;DHT22;10210;52.284;9.892;2024-01-25T13:51:47;11.20;99.90
20102;DHT22;10210;52.284;9.892;2024-01-25T13:54:16;11.20;99.90
20102;DHT22;10210;52.284;9.892;2024-01-25T13:56:47;11.30;99.90
20102;DHT22;10210;52.284;9.892;2024-01-25T13:59:13;11.30;99.90
20102;DHT22;10210;52.284;9.892;2024-01-25T14:01:38;11.40;99.90
20102;DHT22;10210;52.284;9.892;2024-01-25T14:04:04;11.40;99.90
20102;DHT22;10210;52.284;9.892;2024-01-25T14:06:43;11.40;99.90
20102;DHT22;10210;52.284;9.892;2024-01-25T14:09:09;11.40;99.90
20102;DHT22;10210;52.284;9.892;2024-01-25T14:11:34;11.40;99.90
20102;DHT22;10210;52.284;9.892;2024-01-25T14:14:00;11.40;99.90
20102;DHT22;10210;52.284;9.892;2024-01-25T14:16:26;11.40;99.90
20102;DHT22;10210;52.284;9.892;2024-01-25T14:18:52;11.30;99.90
20102;DHT22;10210;52.284;9.892;2024-01-25T14:21:22;11.30;99.90
20102;DHT22;10210;52.284;9.892;2024-01-25T14:23:49;11.30;99.90
20102;DHT22;10210;52.284;9.892;2024-01-25T14:26:15;11.30;99.90
20102;DHT22;10210;52.284;9.892;2024-01-25T14:28:41;11.20;99.90
20102;DHT22;10210;52.284;9.892;2024-01-25T14:31:07;11.20;99.90
20102;DHT22;10210;52.284;9.892;2024-01-25T14:33:32;11.10;99.90
20102;DHT22;10210;52.284;9.892;2024-01-25T14:35:58;11.10;99.90
20102;DHT22;10210;52.284;9.892;2024-01-25T14:38:26;11.10;99.90
20102;DHT22;10210;52.284;9.892;2024-01-25T14:40:52;11.10;99.90
20102;DHT22;10210;52.284;9.892;2024-01-25T14:43:18;11.00;99.90
20102;DHT22;10210;52.284;9.892;2024-01-25T14:45:43;11.00;99.90
20102;DHT22;10210;52.284;9.892;2024-01-25T14:48:09;11.00;99.90
20102;DHT22;10210;52.284;9.892;2024-01-25T14:50:37;11.00;99.90
20102;DHT22;10210;52.284;9.892;2024-01-25T14:53:03;11.00;99.90
20102;DHT22;10210;52.284;9.892;2024-01-25T14:55:29;10.90;99.90
20102;DHT22;10210;52.284;9.892;2024-01-25T14:57:57;11.00;99.90
20102;DHT22;10210;52.284;9.892;2024-01-25T15:00:24;11.00;99.90
20102;DHT22;10210;52.284;9.892;2024-01-25T15:03:00;11.00;99.90
20102;DHT22;10210;52.284;9.892;2024-01-25T15:05:26;11.00;99.90
20102;DHT22;10210;52.284;9.892;2024-01-25T15:07:55;11.00;99.90
20102;DHT22;10210;52.284;9.892;2024-01-25T15:10:21;11.00;99.90
20102;DHT22;10210;52.284;9.892;2024-01-25T15:12:47;11.00;99.90
20102;DHT22;10210;52.284;9.892;2024-01-25T15:15:14;11.00;99.90
20102;DHT22;10210;52.284;9.892;2024-01-25T15:17:40;11.00;99.90
20102;DHT22;10210;52.284;9.892;2024-01-25T15:20:09;11.00;99.90
20102;DHT22;10210;52.284;9.892;2024-01-25T15:22:35;11.00;99.90
20102;DHT22;10210;52.284;9.892;2024-01-25T15:25:00;10.90;99.90
20102;DHT22;10210;52.284;9.892;2024-01-25T15:27:26;10.90;99.90
20102;DHT22;10210;52.284;9.892;2024-01-25T15:29:52;10.90;99.90
20102;DHT22;10210;52.284;9.892;2024-01-25T15:32:18;10.90;99.90
20102;DHT22;10210;52.284;9.892;2024-01-25T15:34:43;10.80;99.90